sensor_id;sensor_type;location;lat;lon;timestamp;P1;durP1;ratioP1;P2;durP2;ratioP2
2416;SDS011;1219;48.736;9.330;2023-02-28T00:01:03;3.93;;;3.63;;
2416;SDS011;1219;48.736;9.330;2023-02-28T00:03:29;3.87;;;3.57;;
2416;SDS011;1219;48.736;9.330;2023-02-28T00:05:55;4.70;;;3.90;;
2416;SDS011;1219;48.736;9.330;2023-02-28T00:08:21;3.70;;;3.40;;
2416;SDS011;1219;48.736;9.330;2023-02-28T00:10:47;4.10;;;3.77;;
2416;SDS011;1219;48.736;9.330;2023-02-28T00:13:13;3.83;;;3.57;;
2416;SDS011;1219;48.736;9.330;2023-02-28T00:15:39;4.50;;;4.20;;
2416;SDS011;1219;48.736;9.330;2023-02-28T00:18:05;4.03;;;3.73;;
2416;SDS011;1219;48.736;9.330;2023-02-28T00:20:31;4.47;;;3.77;;
2416;SDS011;1219;48.736;9.330;2023-02-28T00:22:56;4.97;;;4.57;;
2416;SDS011;1219;48.736;9.330;2023-02-28T00:25:23;4.03;;;3.67;;
2416;SDS011;1219;48.736;9.330;2023-02-28T00:27:50;3.20;;;3.00;;
2416;SDS011;1219;48.736;9.330;2023-02-28T00:30:17;3.83;;;3.53;;
2416;SDS011;1219;48.736;9.330;2023-02-28T00:32:43;3.90;;;2.93;;
2416;SDS011;1219;48.736;9.330;2023-02-28T00:35:10;4.13;;;3.73;;
2416;SDS011;1219;48.736;9.330;2023-02-28T00:37:36;3.20;;;3.00;;
2416;SDS011;1219;48.736;9.330;2023-02-28T00:40:02;4.07;;;3.70;;
2416;SDS011;1219;48.736;9.330;2023-02-28T00:42:32;3.67;;;3.43;;
2416;SDS011;1219;48.736;9.330;2023-02-28T00:44:59;4.03;;;3.63;;
2416;SDS011;1219;48.736;9.330;2023-02-28T00:47:25;4.10;;;3.83;;
2416;SDS011;1219;48.736;9.330;2023-02-28T00:49:51;4.20;;;3.30;;
2416;SDS011;1219;48.736;9.330;2023-02-28T00:52:16;4.33;;;3.93;;
2416;SDS011;1219;48.736;9.330;2023-02-28T00:54:42;3.80;;;3.50;;
2416;SDS011;1219;48.736;9.330;2023-02-28T00:57:08;4.07;;;3.77;;
2416;SDS011;1219;48.736;9.330;2023-02-28T00:59:34;4.20;;;3.90;;
2416;SDS011;1219;48.736;9.330;2023-02-28T01:02:00;4.50;;;4.10;;
2416;SDS011;1219;48.736;9.330;2023-02-28T01:04:26;4.00;;;3.70;;
2416;SDS011;1219;48.736;9.330;2023-02-28T01:06:52;4.43;;;4.10;;
2416;SDS011;1219;48.736;9.330;2023-02-28T01:09:18;4.73;;;3.63;;
2416;SDS011;1219;48.736;9.330;2023-02-28T01:11:44;4.50;;;4.10;;
2416;SDS011;1219;48.736;9.330;2023-02-28T01:14:14;4.73;;;4.33;;
2416;SDS011;1219;48.736;9.330;2023-02-28T01:16:40;6.70;;;4.30;;
2416;SDS011;1219;48.736;9.330;2023-02-28T01:19:06;5.90;;;4.00;;
2416;SDS011;1219;48.736;9.330;2023-02-28T01:21:33;6.93;;;4.03;;
2416;SDS011;1219;48.736;9.330;2023-02-28T01:23:59;5.10;;;4.60;;
2416;SDS011;1219;48.736;9.330;2023-02-28T01:26:25;4.70;;;3.97;;
2416;SDS011;1219;48.736;9.330;2023-02-28T01:28:52;8.30;;;5.57;;
2416;SDS011;1219;48.736;9.330;2023-02-28T01:31:18;3.97;;;3.77;;
2416;SDS011;1219;48.736;9.330;2023-02-28T01:33:45;4.43;;;4.03;;
2416;SDS011;1219;48.736;9.330;2023-02-28T01:36:12;4.40;;;3.90;;
2416;SDS011;1219;48.736;9.330;2023-02-28T01:38:39;4.67;;;4.27;;
2416;SDS011;1219;48.736;9.330;2023-02-28T01:41:05;4.50;;;4.10;;
2416;SDS011;1219;48.736;9.330;2023-02-28T01:46:09;5.40;;;4.50;;
2416;SDS011;1219;48.736;9.330;2023-02-28T01:48:37;7.27;;;4.97;;
2416;SDS011;1219;48.736;9.330;2023-02-28T01:51:11;6.50;;;5.30;;
2416;SDS011;1219;48.736;9.330;2023-02-28T01:53:41;5.97;;;5.10;;
2416;SDS011;1219;48.736;9.330;2023-02-28T01:56:08;4.43;;;4.03;;
2416;SDS011;1219;48.736;9.330;2023-02-28T01:58:36;5.57;;;4.90;;
2416;SDS011;1219;48.736;9.330;2023-02-28T02:01:02;5.70;;;5.03;;
2416;SDS011;1219;48.736;9.330;2023-02-28T02:03:28;6.73;;;5.00;;
2416;SDS011;1219;48.736;9.330;2023-02-28T02:05:55;5.50;;;5.00;;
2416;SDS011;1219;48.736;9.330;2023-02-28T02:08:25;5.43;;;4.83;;
2416;SDS011;1219;48.736;9.330;2023-02-28T02:10:52;4.90;;;4.60;;
2416;SDS011;1219;48.736;9.330;2023-02-28T02:18:53;5.40;;;4.90;;
2416;SDS011;1219;48.736;9.330;2023-02-28T02:21:28;5.10;;;4.70;;
2416;SDS011;1219;48.736;9.330;2023-02-28T02:26:46;4.63;;;4.10;;
2416;SDS011;1219;48.736;9.330;2023-02-28T02:29:39;5.03;;;4.10;;
2416;SDS011;1219;48.736;9.330;2023-02-28T02:34:52;6.27;;;5.43;;
2416;SDS011;1219;48.736;9.330;2023-02-28T02:44:56;4.87;;;4.47;;
2416;SDS011;1219;48.736;9.330;2023-02-28T02:47:24;5.90;;;4.77;;
2416;SDS011;1219;48.736;9.330;2023-02-28T02:49:52;5.80;;;5.23;;
2416;SDS011;1219;48.736;9.330;2023-02-28T02:52:20;5.40;;;4.90;;
2416;SDS011;1219;48.736;9.330;2023-02-28T02:54:47;6.53;;;5.90;;
2416;SDS011;1219;48.736;9.330;2023-02-28T02:57:17;4.70;;;4.40;;
2416;SDS011;1219;48.736;9.330;2023-02-28T02:59:45;4.80;;;4.50;;
2416;SDS011;1219;48.736;9.330;2023-02-28T03:02:14;4.70;;;4.40;;
2416;SDS011;1219;48.736;9.330;2023-02-28T03:04:51;4.97;;;4.67;;
2416;SDS011;1219;48.736;9.330;2023-02-28T03:07:18;4.10;;;3.90;;
2416;SDS011;1219;48.736;9.330;2023-02-28T03:09:51;4.67;;;4.37;;
2416;SDS011;1219;48.736;9.330;2023-02-28T03:12:17;5.37;;;4.87;;
2416;SDS011;1219;48.736;9.330;2023-02-28T03:15:30;4.80;;;4.40;;
2416;SDS011;1219;48.736;9.330;2023-02-28T03:20:16;6.00;;;5.00;;
2416;SDS011;1219;48.736;9.330;2023-02-28T03:22:51;6.27;;;4.43;;
2416;SDS011;1219;48.736;9.330;2023-02-28T03:28:05;5.80;;;5.30;;
2416;SDS011;1219;48.736;9.330;2023-02-28T03:30:42;6.40;;;5.63;;
2416;SDS011;1219;48.736;9.330;2023-02-28T03:33:11;6.70;;;5.47;;
2416;SDS011;1219;48.736;9.330;2023-02-28T03:35:40;5.10;;;4.60;;
2416;SDS011;1219;48.736;9.330;2023-02-28T03:38:24;5.83;;;5.33;;
2416;SDS011;1219;48.736;9.330;2023-02-28T03:40:55;7.53;;;4.73;;
2416;SDS011;1219;48.736;9.330;2023-02-28T03:43:25;4.63;;;4.23;;
2416;SDS011;1219;48.736;9.330;2023-02-28T03:45:52;4.93;;;4.57;;
2416;SDS011;1219;48.736;9.330;2023-02-28T03:48:27;5.23;;;4.73;;
2416;SDS011;1219;48.736;9.330;2023-02-28T03:50:55;5.47;;;4.97;;
2416;SDS011;1219;48.736;9.330;2023-02-28T03:53:25;5.70;;;5.27;;
2416;SDS011;1219;48.736;9.330;2023-02-28T03:55:54;6.43;;;5.17;;
2416;SDS011;1219;48.736;9.330;2023-02-28T04:00:53;5.77;;;5.27;;
2416;SDS011;1219;48.736;9.330;2023-02-28T04:03:21;6.57;;;6.07;;
2416;SDS011;1219;48.736;9.330;2023-02-28T04:05:48;10.73;;;6.50;;
2416;SDS011;1219;48.736;9.330;2023-02-28T04:08:15;7.43;;;6.17;;
2416;SDS011;1219;48.736;9.330;2023-02-28T04:10:42;6.50;;;5.10;;
2416;SDS011;1219;48.736;9.330;2023-02-28T04:13:10;5.90;;;5.33;;
2416;SDS011;1219;48.736;9.330;2023-02-28T04:15:36;5.80;;;5.30;;
2416;SDS011;1219;48.736;9.330;2023-02-28T04:18:02;5.77;;;5.27;;
2416;SDS011;1219;48.736;9.330;2023-02-28T04:20:28;6.53;;;5.93;;
2416;SDS011;1219;48.736;9.330;2023-02-28T04:22:54;4.93;;;4.63;;
2416;SDS011;1219;48.736;9.330;2023-02-28T04:25:20;5.83;;;5.33;;
2416;SDS011;1219;48.736;9.330;2023-02-28T04:27:46;7.77;;;5.50;;
2416;SDS011;1219;48.736;9.330;2023-02-28T04:30:12;7.03;;;6.30;;
2416;SDS011;1219;48.736;9.330;2023-02-28T04:32:38;5.20;;;4.80;;
2416;SDS011;1219;48.736;9.330;2023-02-28T04:35:04;6.43;;;5.83;;
2416;SDS011;1219;48.736;9.330;2023-02-28T04:37:30;6.40;;;5.90;;
2416;SDS011;1219;48.736;9.330;2023-02-28T04:39:59;5.77;;;5.33;;
2416;SDS011;1219;48.736;9.330;2023-02-28T04:42:25;6.30;;;5.27;;
2416;SDS011;1219;48.736;9.330;2023-02-28T04:44:51;6.43;;;5.80;;
2416;SDS011;1219;48.736;9.330;2023-02-28T04:47:17;10.97;;;5.87;;
2416;SDS011;1219;48.736;9.330;2023-02-28T04:49:43;5.90;;;5.30;;
2416;SDS011;1219;48.736;9.330;2023-02-28T04:52:09;8.37;;;5.87;;
2416;SDS011;1219;48.736;9.330;2023-02-28T04:54:35;6.10;;;5.40;;
2416;SDS011;1219;48.736;9.330;2023-02-28T04:57:03;7.67;;;5.83;;
2416;SDS011;1219;48.736;9.330;2023-02-28T04:59:29;7.13;;;6.50;;
2416;SDS011;1219;48.736;9.330;2023-02-28T05:01:55;7.60;;;6.10;;
2416;SDS011;1219;48.736;9.330;2023-02-28T05:04:21;6.13;;;4.80;;
2416;SDS011;1219;48.736;9.330;2023-02-28T05:06:47;7.83;;;5.73;;
2416;SDS011;1219;48.736;9.330;2023-02-28T05:09:13;8.13;;;6.50;;
2416;SDS011;1219;48.736;9.330;2023-02-28T05:11:39;6.73;;;5.90;;
2416;SDS011;1219;48.736;9.330;2023-02-28T05:14:06;8.03;;;6.70;;
2416;SDS011;1219;48.736;9.330;2023-02-28T05:16:34;7.87;;;7.17;;
2416;SDS011;1219;48.736;9.330;2023-02-28T05:19:00;12.37;;;6.67;;
2416;SDS011;1219;48.736;9.330;2023-02-28T05:21:33;6.97;;;6.27;;
2416;SDS011;1219;48.736;9.330;2023-02-28T05:24:01;6.80;;;6.23;;
2416;SDS011;1219;48.736;9.330;2023-02-28T05:26:27;8.03;;;6.53;;
2416;SDS011;1219;48.736;9.330;2023-02-28T05:28:54;7.43;;;6.60;;
2416;SDS011;1219;48.736;9.330;2023-02-28T05:31:20;9.53;;;7.07;;
2416;SDS011;1219;48.736;9.330;2023-02-28T05:33:46;6.60;;;5.63;;
2416;SDS011;1219;48.736;9.330;2023-02-28T05:36:12;7.13;;;6.17;;
2416;SDS011;1219;48.736;9.330;2023-02-28T05:38:38;6.60;;;5.17;;
2416;SDS011;1219;48.736;9.330;2023-02-28T05:41:07;6.43;;;5.67;;
2416;SDS011;1219;48.736;9.330;2023-02-28T05:43:34;9.00;;;6.60;;
2416;SDS011;1219;48.736;9.330;2023-02-28T05:46:07;8.03;;;6.70;;
2416;SDS011;1219;48.736;9.330;2023-02-28T05:48:33;9.20;;;7.00;;
2416;SDS011;1219;48.736;9.330;2023-02-28T05:51:00;7.10;;;6.40;;
2416;SDS011;1219;48.736;9.330;2023-02-28T05:53:26;7.30;;;6.13;;
2416;SDS011;1219;48.736;9.330;2023-02-28T05:55:52;7.60;;;6.43;;
2416;SDS011;1219;48.736;9.330;2023-02-28T05:58:18;8.73;;;7.70;;
2416;SDS011;1219;48.736;9.330;2023-02-28T06:00:44;8.80;;;6.97;;
2416;SDS011;1219;48.736;9.330;2023-02-28T06:03:10;7.03;;;6.40;;
2416;SDS011;1219;48.736;9.330;2023-02-28T06:05:36;6.90;;;6.30;;
2416;SDS011;1219;48.736;9.330;2023-02-28T06:08:03;7.20;;;6.60;;
2416;SDS011;1219;48.736;9.330;2023-02-28T06:10:31;8.37;;;7.03;;
2416;SDS011;1219;48.736;9.330;2023-02-28T06:12:59;8.03;;;7.27;;
2416;SDS011;1219;48.736;9.330;2023-02-28T06:15:27;8.33;;;7.63;;
2416;SDS011;1219;48.736;9.330;2023-02-28T06:17:54;8.07;;;7.20;;
2416;SDS011;1219;48.736;9.330;2023-02-28T06:20:21;11.87;;;6.87;;
2416;SDS011;1219;48.736;9.330;2023-02-28T06:22:47;7.67;;;6.87;;
2416;SDS011;1219;48.736;9.330;2023-02-28T06:25:15;7.70;;;6.93;;
2416;SDS011;1219;48.736;9.330;2023-02-28T06:27:41;7.97;;;7.17;;
2416;SDS011;1219;48.736;9.330;2023-02-28T06:30:08;8.77;;;7.97;;
2416;SDS011;1219;48.736;9.330;2023-02-28T06:32:34;7.40;;;6.80;;
2416;SDS011;1219;48.736;9.330;2023-02-28T06:35:01;8.23;;;7.43;;
2416;SDS011;1219;48.736;9.330;2023-02-28T06:37:27;9.73;;;8.17;;
2416;SDS011;1219;48.736;9.330;2023-02-28T06:39:53;7.70;;;7.00;;
2416;SDS011;1219;48.736;9.330;2023-02-28T06:42:23;9.20;;;6.90;;
2416;SDS011;1219;48.736;9.330;2023-02-28T06:44:53;7.07;;;6.40;;
2416;SDS011;1219;48.736;9.330;2023-02-28T06:47:21;9.10;;;7.20;;
2416;SDS011;1219;48.736;9.330;2023-02-28T06:49:47;9.10;;;6.63;;
2416;SDS011;1219;48.736;9.330;2023-02-28T06:52:13;8.30;;;7.47;;
2416;SDS011;1219;48.736;9.330;2023-02-28T06:54:39;8.77;;;7.90;;
2416;SDS011;1219;48.736;9.330;2023-02-28T06:57:06;7.20;;;6.70;;
2416;SDS011;1219;48.736;9.330;2023-02-28T06:59:32;9.20;;;7.93;;
2416;SDS011;1219;48.736;9.330;2023-02-28T07:01:58;7.93;;;7.13;;
2416;SDS011;1219;48.736;9.330;2023-02-28T07:04:24;8.13;;;7.43;;
2416;SDS011;1219;48.736;9.330;2023-02-28T07:06:50;7.67;;;6.97;;
2416;SDS011;1219;48.736;9.330;2023-02-28T07:09:16;8.83;;;7.93;;
2416;SDS011;1219;48.736;9.330;2023-02-28T07:11:44;8.20;;;7.40;;
2416;SDS011;1219;48.736;9.330;2023-02-28T07:14:09;7.87;;;7.17;;
2416;SDS011;1219;48.736;9.330;2023-02-28T07:16:35;8.20;;;7.40;;
2416;SDS011;1219;48.736;9.330;2023-02-28T07:19:01;8.53;;;7.03;;
2416;SDS011;1219;48.736;9.330;2023-02-28T07:21:27;11.53;;;8.30;;
2416;SDS011;1219;48.736;9.330;2023-02-28T07:23:53;7.83;;;7.17;;
2416;SDS011;1219;48.736;9.330;2023-02-28T07:26:19;8.30;;;7.40;;
2416;SDS011;1219;48.736;9.330;2023-02-28T07:28:46;10.90;;;9.40;;
2416;SDS011;1219;48.736;9.330;2023-02-28T07:31:12;9.80;;;8.30;;
2416;SDS011;1219;48.736;9.330;2023-02-28T07:33:39;8.63;;;7.83;;
2416;SDS011;1219;48.736;9.330;2023-02-28T07:36:06;8.67;;;7.77;;
2416;SDS011;1219;48.736;9.330;2023-02-28T07:38:36;12.27;;;8.73;;
2416;SDS011;1219;48.736;9.330;2023-02-28T07:41:02;8.23;;;7.50;;
2416;SDS011;1219;48.736;9.330;2023-02-28T07:43:33;12.17;;;8.43;;
2416;SDS011;1219;48.736;9.330;2023-02-28T07:46:07;10.27;;;8.77;;
2416;SDS011;1219;48.736;9.330;2023-02-28T07:48:33;9.70;;;8.03;;
2416;SDS011;1219;48.736;9.330;2023-02-28T07:51:00;9.47;;;8.60;;
2416;SDS011;1219;48.736;9.330;2023-02-28T07:53:26;9.40;;;8.50;;
2416;SDS011;1219;48.736;9.330;2023-02-28T07:55:56;9.53;;;8.13;;
2416;SDS011;1219;48.736;9.330;2023-02-28T07:58:23;9.63;;;7.87;;
2416;SDS011;1219;48.736;9.330;2023-02-28T08:00:49;10.07;;;8.30;;
2416;SDS011;1219;48.736;9.330;2023-02-28T08:03:16;8.37;;;7.67;;
2416;SDS011;1219;48.736;9.330;2023-02-28T08:05:42;8.50;;;7.70;;
2416;SDS011;1219;48.736;9.330;2023-02-28T08:08:08;14.10;;;9.83;;
2416;SDS011;1219;48.736;9.330;2023-02-28T08:10:34;10.30;;;8.73;;
2416;SDS011;1219;48.736;9.330;2023-02-28T08:13:00;10.63;;;9.07;;
2416;SDS011;1219;48.736;9.330;2023-02-28T08:15:26;12.90;;;7.87;;
2416;SDS011;1219;48.736;9.330;2023-02-28T08:17:52;10.93;;;8.93;;
2416;SDS011;1219;48.736;9.330;2023-02-28T08:20:21;8.30;;;7.60;;
2416;SDS011;1219;48.736;9.330;2023-02-28T08:22:47;9.00;;;8.10;;
2416;SDS011;1219;48.736;9.330;2023-02-28T08:25:13;9.13;;;8.30;;
2416;SDS011;1219;48.736;9.330;2023-02-28T08:27:39;9.73;;;8.40;;
2416;SDS011;1219;48.736;9.330;2023-02-28T08:30:05;10.70;;;8.77;;
2416;SDS011;1219;48.736;9.330;2023-02-28T08:32:31;9.93;;;8.77;;
2416;SDS011;1219;48.736;9.330;2023-02-28T08:34:58;11.97;;;8.60;;
2416;SDS011;1219;48.736;9.330;2023-02-28T08:37:24;10.40;;;8.00;;
2416;SDS011;1219;48.736;9.330;2023-02-28T08:39:50;9.90;;;7.00;;
2416;SDS011;1219;48.736;9.330;2023-02-28T08:42:16;11.30;;;7.53;;
2416;SDS011;1219;48.736;9.330;2023-02-28T08:44:41;9.60;;;7.70;;
2416;SDS011;1219;48.736;9.330;2023-02-28T08:47:08;10.53;;;9.17;;
2416;SDS011;1219;48.736;9.330;2023-02-28T08:49:34;10.93;;;8.90;;
2416;SDS011;1219;48.736;9.330;2023-02-28T08:51:59;9.40;;;8.37;;
2416;SDS011;1219;48.736;9.330;2023-02-28T08:54:25;10.90;;;8.93;;
2416;SDS011;1219;48.736;9.330;2023-02-28T08:56:55;9.87;;;8.97;;
2416;SDS011;1219;48.736;9.330;2023-02-28T08:59:21;10.03;;;9.00;;
2416;SDS011;1219;48.736;9.330;2023-02-28T09:01:47;9.47;;;8.53;;
2416;SDS011;1219;48.736;9.330;2023-02-28T09:04:13;9.93;;;8.30;;
2416;SDS011;1219;48.736;9.330;2023-02-28T09:06:39;9.83;;;8.83;;
2416;SDS011;1219;48.736;9.330;2023-02-28T09:09:05;9.57;;;8.50;;
2416;SDS011;1219;48.736;9.330;2023-02-28T09:11:32;9.17;;;8.27;;
2416;SDS011;1219;48.736;9.330;2023-02-28T09:13:58;11.20;;;8.53;;
2416;SDS011;1219;48.736;9.330;2023-02-28T09:16:25;10.83;;;7.93;;
2416;SDS011;1219;48.736;9.330;2023-02-28T09:18:51;8.27;;;7.57;;
2416;SDS011;1219;48.736;9.330;2023-02-28T09:21:18;11.33;;;8.57;;
2416;SDS011;1219;48.736;9.330;2023-02-28T09:23:45;8.37;;;7.60;;
2416;SDS011;1219;48.736;9.330;2023-02-28T09:26:15;9.27;;;8.07;;
2416;SDS011;1219;48.736;9.330;2023-02-28T09:28:42;11.80;;;10.30;;
2416;SDS011;1219;48.736;9.330;2023-02-28T09:31:14;10.60;;;8.50;;
2416;SDS011;1219;48.736;9.330;2023-02-28T09:33:41;13.90;;;11.47;;
2416;SDS011;1219;48.736;9.330;2023-02-28T09:36:08;10.97;;;9.67;;
2416;SDS011;1219;48.736;9.330;2023-02-28T09:38:34;9.10;;;7.87;;
2416;SDS011;1219;48.736;9.330;2023-02-28T09:41:11;10.90;;;9.60;;
2416;SDS011;1219;48.736;9.330;2023-02-28T09:43:40;12.03;;;9.47;;
2416;SDS011;1219;48.736;9.330;2023-02-28T09:48:51;12.53;;;9.80;;
2416;SDS011;1219;48.736;9.330;2023-02-28T09:51:27;11.27;;;9.10;;
2416;SDS011;1219;48.736;9.330;2023-02-28T09:53:54;9.70;;;8.10;;
2416;SDS011;1219;48.736;9.330;2023-02-28T09:56:21;12.00;;;9.23;;
2416;SDS011;1219;48.736;9.330;2023-02-28T09:58:58;9.43;;;8.50;;
2416;SDS011;1219;48.736;9.330;2023-02-28T10:01:27;10.67;;;8.50;;
2416;SDS011;1219;48.736;9.330;2023-02-28T10:03:56;9.33;;;8.53;;
2416;SDS011;1219;48.736;9.330;2023-02-28T10:06:33;9.20;;;8.23;;
2416;SDS011;1219;48.736;9.330;2023-02-28T10:09:02;15.90;;;9.63;;
2416;SDS011;1219;48.736;9.330;2023-02-28T10:11:29;8.77;;;7.93;;
2416;SDS011;1219;48.736;9.330;2023-02-28T10:13:59;9.93;;;8.83;;
2416;SDS011;1219;48.736;9.330;2023-02-28T10:16:38;10.63;;;9.53;;
2416;SDS011;1219;48.736;9.330;2023-02-28T10:19:11;9.27;;;8.37;;
2416;SDS011;1219;48.736;9.330;2023-02-28T10:21:41;9.00;;;8.20;;
2416;SDS011;1219;48.736;9.330;2023-02-28T10:26:55;9.33;;;8.37;;
2416;SDS011;1219;48.736;9.330;2023-02-28T10:29:23;11.50;;;8.77;;
2416;SDS011;1219;48.736;9.330;2023-02-28T10:31:49;11.33;;;8.77;;
2416;SDS011;1219;48.736;9.330;2023-02-28T10:34:15;12.80;;;9.07;;
2416;SDS011;1219;48.736;9.330;2023-02-28T10:36:41;16.60;;;10.37;;
2416;SDS011;1219;48.736;9.330;2023-02-28T10:41:55;11.50;;;9.43;;
2416;SDS011;1219;48.736;9.330;2023-02-28T10:44:21;9.60;;;8.47;;
2416;SDS011;1219;48.736;9.330;2023-02-28T10:46:48;11.20;;;9.07;;
2416;SDS011;1219;48.736;9.330;2023-02-28T10:49:24;9.73;;;8.10;;
2416;SDS011;1219;48.736;9.330;2023-02-28T10:51:52;9.73;;;8.73;;
2416;SDS011;1219;48.736;9.330;2023-02-28T10:54:39;10.33;;;9.00;;
2416;SDS011;1219;48.736;9.330;2023-02-28T10:57:15;11.97;;;10.37;;
2416;SDS011;1219;48.736;9.330;2023-02-28T10:59:41;10.00;;;9.00;;
2416;SDS011;1219;48.736;9.330;2023-02-28T11:02:28;10.53;;;9.53;;
2416;SDS011;1219;48.736;9.330;2023-02-28T11:04:54;10.10;;;9.10;;
2416;SDS011;1219;48.736;9.330;2023-02-28T11:07:21;11.07;;;9.70;;
2416;SDS011;1219;48.736;9.330;2023-02-28T11:09:48;10.63;;;9.50;;
2416;SDS011;1219;48.736;9.330;2023-02-28T11:17:44;12.20;;;9.90;;
2416;SDS011;1219;48.736;9.330;2023-02-28T11:20:21;13.43;;;8.43;;
2416;SDS011;1219;48.736;9.330;2023-02-28T11:22:48;9.37;;;8.60;;
2416;SDS011;1219;48.736;9.330;2023-02-28T11:25:20;10.57;;;9.47;;
2416;SDS011;1219;48.736;9.330;2023-02-28T11:27:48;9.80;;;8.90;;
2416;SDS011;1219;48.736;9.330;2023-02-28T11:30:31;9.03;;;8.23;;
2416;SDS011;1219;48.736;9.330;2023-02-28T11:32:58;8.57;;;7.77;;
2416;SDS011;1219;48.736;9.330;2023-02-28T11:35:29;8.97;;;8.10;;
2416;SDS011;1219;48.736;9.330;2023-02-28T11:37:57;10.23;;;9.13;;
2416;SDS011;1219;48.736;9.330;2023-02-28T11:45:43;8.17;;;7.47;;
2416;SDS011;1219;48.736;9.330;2023-02-28T11:48:16;8.50;;;7.67;;
2416;SDS011;1219;48.736;9.330;2023-02-28T12:06:40;9.70;;;8.80;;
2416;SDS011;1219;48.736;9.330;2023-02-28T12:09:12;6.80;;;6.10;;
2416;SDS011;1219;48.736;9.330;2023-02-28T12:11:52;8.47;;;7.60;;
2416;SDS011;1219;48.736;9.330;2023-02-28T12:14:33;8.77;;;8.00;;
2416;SDS011;1219;48.736;9.330;2023-02-28T12:17:16;10.70;;;9.70;;
2416;SDS011;1219;48.736;9.330;2023-02-28T12:19:53;9.57;;;8.77;;
2416;SDS011;1219;48.736;9.330;2023-02-28T12:22:30;9.87;;;8.97;;
2416;SDS011;1219;48.736;9.330;2023-02-28T12:27:38;9.30;;;8.30;;
2416;SDS011;1219;48.736;9.330;2023-02-28T12:30:08;9.27;;;8.50;;
2416;SDS011;1219;48.736;9.330;2023-02-28T12:32:41;9.63;;;8.83;;
2416;SDS011;1219;48.736;9.330;2023-02-28T12:37:36;14.20;;;9.50;;
2416;SDS011;1219;48.736;9.330;2023-02-28T12:40:05;9.60;;;8.73;;
2416;SDS011;1219;48.736;9.330;2023-02-28T12:42:38;9.00;;;8.10;;
2416;SDS011;1219;48.736;9.330;2023-02-28T12:45:17;11.10;;;10.00;;
2416;SDS011;1219;48.736;9.330;2023-02-28T12:47:44;9.13;;;8.30;;
2416;SDS011;1219;48.736;9.330;2023-02-28T12:50:11;10.77;;;9.77;;
2416;SDS011;1219;48.736;9.330;2023-02-28T12:52:40;9.67;;;8.80;;
2416;SDS011;1219;48.736;9.330;2023-02-28T12:55:15;10.03;;;9.23;;
2416;SDS011;1219;48.736;9.330;2023-02-28T13:00:17;9.43;;;8.47;;
2416;SDS011;1219;48.736;9.330;2023-02-28T13:08:07;8.27;;;7.67;;
2416;SDS011;1219;48.736;9.330;2023-02-28T13:13:28;9.00;;;8.20;;
2416;SDS011;1219;48.736;9.330;2023-02-28T13:18:31;9.10;;;8.30;;
2416;SDS011;1219;48.736;9.330;2023-02-28T13:20:58;10.40;;;9.40;;
2416;SDS011;1219;48.736;9.330;2023-02-28T13:26:04;8.60;;;7.83;;
2416;SDS011;1219;48.736;9.330;2023-02-28T13:31:15;10.90;;;9.80;;
2416;SDS011;1219;48.736;9.330;2023-02-28T13:38:44;10.40;;;9.10;;
2416;SDS011;1219;48.736;9.330;2023-02-28T13:43:59;9.67;;;8.70;;
2416;SDS011;1219;48.736;9.330;2023-02-28T13:46:26;9.07;;;7.67;;
2416;SDS011;1219;48.736;9.330;2023-02-28T13:48:52;9.63;;;8.63;;
2416;SDS011;1219;48.736;9.330;2023-02-28T13:59:35;11.07;;;8.33;;
2416;SDS011;1219;48.736;9.330;2023-02-28T14:02:11;9.00;;;8.20;;
2416;SDS011;1219;48.736;9.330;2023-02-28T14:07:09;8.67;;;7.87;;
2416;SDS011;1219;48.736;9.330;2023-02-28T14:09:37;8.20;;;7.60;;
2416;SDS011;1219;48.736;9.330;2023-02-28T14:17:15;8.40;;;7.73;;
2416;SDS011;1219;48.736;9.330;2023-02-28T14:19:43;8.27;;;7.57;;
2416;SDS011;1219;48.736;9.330;2023-02-28T14:22:36;8.67;;;8.03;;
2416;SDS011;1219;48.736;9.330;2023-02-28T14:30:03;8.17;;;7.50;;
2416;SDS011;1219;48.736;9.330;2023-02-28T14:32:35;8.77;;;8.07;;
2416;SDS011;1219;48.736;9.330;2023-02-28T14:35:12;8.43;;;7.73;;
2416;SDS011;1219;48.736;9.330;2023-02-28T14:37:42;9.37;;;8.57;;
2416;SDS011;1219;48.736;9.330;2023-02-28T14:40:16;9.37;;;8.57;;
2416;SDS011;1219;48.736;9.330;2023-02-28T14:42:56;8.40;;;7.73;;
2416;SDS011;1219;48.736;9.330;2023-02-28T14:45:22;8.77;;;8.07;;
2416;SDS011;1219;48.736;9.330;2023-02-28T14:47:49;8.83;;;7.93;;
2416;SDS011;1219;48.736;9.330;2023-02-28T14:50:20;9.60;;;8.70;;
2416;SDS011;1219;48.736;9.330;2023-02-28T14:52:46;9.43;;;8.63;;
2416;SDS011;1219;48.736;9.330;2023-02-28T14:55:13;9.10;;;8.40;;
2416;SDS011;1219;48.736;9.330;2023-02-28T14:57:41;9.67;;;8.80;;
2416;SDS011;1219;48.736;9.330;2023-02-28T15:02:38;9.03;;;8.10;;
2416;SDS011;1219;48.736;9.330;2023-02-28T15:05:15;13.57;;;8.30;;
2416;SDS011;1219;48.736;9.330;2023-02-28T15:07:45;9.37;;;8.47;;
2416;SDS011;1219;48.736;9.330;2023-02-28T15:12:45;8.77;;;8.07;;
2416;SDS011;1219;48.736;9.330;2023-02-28T15:15:14;8.80;;;8.00;;
2416;SDS011;1219;48.736;9.330;2023-02-28T15:17:40;10.00;;;9.10;;
2416;SDS011;1219;48.736;9.330;2023-02-28T15:20:10;9.20;;;8.40;;
2416;SDS011;1219;48.736;9.330;2023-02-28T15:22:37;9.77;;;8.73;;
2416;SDS011;1219;48.736;9.330;2023-02-28T15:25:04;8.97;;;8.13;;
2416;SDS011;1219;48.736;9.330;2023-02-28T15:27:31;9.10;;;8.17;;
2416;SDS011;1219;48.736;9.330;2023-02-28T15:29:58;11.83;;;9.53;;
2416;SDS011;1219;48.736;9.330;2023-02-28T15:32:29;10.17;;;9.27;;
2416;SDS011;1219;48.736;9.330;2023-02-28T15:34:55;9.63;;;8.73;;
2416;SDS011;1219;48.736;9.330;2023-02-28T15:40:14;9.30;;;8.50;;
2416;SDS011;1219;48.736;9.330;2023-02-28T15:42:40;10.87;;;9.80;;
2416;SDS011;1219;48.736;9.330;2023-02-28T15:45:27;10.03;;;9.10;;
2416;SDS011;1219;48.736;9.330;2023-02-28T15:47:54;9.37;;;8.47;;
2416;SDS011;1219;48.736;9.330;2023-02-28T15:50:20;11.93;;;9.80;;
2416;SDS011;1219;48.736;9.330;2023-02-28T15:52:46;9.23;;;8.43;;
2416;SDS011;1219;48.736;9.330;2023-02-28T15:55:19;9.77;;;8.93;;
2416;SDS011;1219;48.736;9.330;2023-02-28T15:57:47;10.30;;;9.30;;
2416;SDS011;1219;48.736;9.330;2023-02-28T16:00:15;9.57;;;8.60;;
2416;SDS011;1219;48.736;9.330;2023-02-28T16:02:42;9.57;;;8.67;;
2416;SDS011;1219;48.736;9.330;2023-02-28T16:07:37;10.77;;;9.47;;
2416;SDS011;1219;48.736;9.330;2023-02-28T16:10:04;10.37;;;9.37;;
2416;SDS011;1219;48.736;9.330;2023-02-28T16:12:31;11.90;;;10.70;;
2416;SDS011;1219;48.736;9.330;2023-02-28T16:14:59;11.97;;;9.83;;
2416;SDS011;1219;48.736;9.330;2023-02-28T16:17:28;11.80;;;10.60;;
2416;SDS011;1219;48.736;9.330;2023-02-28T16:19:55;12.20;;;10.73;;
2416;SDS011;1219;48.736;9.330;2023-02-28T16:22:21;10.30;;;9.30;;
2416;SDS011;1219;48.736;9.330;2023-02-28T16:24:47;10.30;;;9.40;;
2416;SDS011;1219;48.736;9.330;2023-02-28T16:29:45;10.40;;;9.40;;
2416;SDS011;1219;48.736;9.330;2023-02-28T16:32:12;14.40;;;9.63;;
2416;SDS011;1219;48.736;9.330;2023-02-28T16:34:39;13.03;;;9.43;;
2416;SDS011;1219;48.736;9.330;2023-02-28T16:37:09;10.97;;;9.83;;
2416;SDS011;1219;48.736;9.330;2023-02-28T16:39:36;11.87;;;10.43;;
2416;SDS011;1219;48.736;9.330;2023-02-28T16:42:02;10.80;;;9.80;;
2416;SDS011;1219;48.736;9.330;2023-02-28T16:44:29;9.50;;;8.60;;
2416;SDS011;1219;48.736;9.330;2023-02-28T16:46:57;15.07;;;9.47;;
2416;SDS011;1219;48.736;9.330;2023-02-28T16:49:25;12.13;;;11.03;;
2416;SDS011;1219;48.736;9.330;2023-02-28T16:51:50;13.20;;;9.43;;
2416;SDS011;1219;48.736;9.330;2023-02-28T16:54:16;13.87;;;10.40;;
2416;SDS011;1219;48.736;9.330;2023-02-28T16:56:44;11.97;;;9.47;;
2416;SDS011;1219;48.736;9.330;2023-02-28T16:59:10;12.03;;;9.70;;
2416;SDS011;1219;48.736;9.330;2023-02-28T17:01:37;12.30;;;11.00;;
2416;SDS011;1219;48.736;9.330;2023-02-28T17:04:03;14.03;;;11.97;;
2416;SDS011;1219;48.736;9.330;2023-02-28T17:06:29;10.70;;;9.40;;
2416;SDS011;1219;48.736;9.330;2023-02-28T17:08:56;15.27;;;11.30;;
2416;SDS011;1219;48.736;9.330;2023-02-28T17:11:22;10.20;;;9.20;;
2416;SDS011;1219;48.736;9.330;2023-02-28T17:13:48;11.30;;;9.93;;
2416;SDS011;1219;48.736;9.330;2023-02-28T17:16:27;18.10;;;9.93;;
2416;SDS011;1219;48.736;9.330;2023-02-28T17:18:54;9.77;;;8.70;;
2416;SDS011;1219;48.736;9.330;2023-02-28T17:21:22;11.73;;;9.40;;
2416;SDS011;1219;48.736;9.330;2023-02-28T17:23:48;14.40;;;10.90;;
2416;SDS011;1219;48.736;9.330;2023-02-28T17:26:15;12.30;;;11.00;;